Airport ICAO


07:27 UTC

8°C

Mist


An affordable passengers' Moving Map for your aircraft. Made for the iPad and the iPhone
More information here

EGWU Northolt


Northolt UNITED KINGDOM   VFR


METAR EGWU 200650Z 00000KT 9999 5000NW BR FEW040 SCT100 BKN180 08/07 Q1019 WHT BECMG 9999 NSW BLU 0h37min

TAF EGWU 200424Z 2006/2024 20008KT 9999 SCT030 TEMPO 2006/2008 6000 BR TEMPO 2008/2012 SCT015 PROB30 TEMPO 2012/2024 SCT024 3h03min





NOTAMS

OPEN